Time;durP1;ratioP1;P1;durP2;ratioP2;P2;SDS_P1;SDS_P2;PMS_P1;PMS_P2;Temp;Humidity;BMP_temperature;BMP_pressure;BME280_temperature;BME280_humidity;BME280_pressure;Samples;Min_cycle;Max_cycle;Signal;HPM_P1;HPM_P2
2022/12/03 00:01:04;;;;;;;;;;;;;;;18.60;60.68;101920.90;2253511;78;49325;-77
2022/12/03 00:04:06;;;;;;;;;;;;;;;18.62;60.76;101924.25;2253897;78;51508;-76
2022/12/03 00:07:07;;;;;;;;;;;;;;;18.67;60.64;101919.77;2277625;78;50320;-77
2022/12/03 00:10:09;;;;;;;;;;;;;;;18.69;60.51;101915.11;2277357;78;50708;-78
2022/12/03 00:13:11;;;;;;;;;;;;;;;18.68;60.48;101921.48;2229006;78;51160;-77
2022/12/03 00:16:12;;;;;;;;;;;;;;;18.64;60.57;101919.58;2277279;77;50415;-76
2022/12/03 00:19:14;;;;;;;;;;;;;;;18.60;60.64;101915.53;2253389;78;50342;-77
2022/12/03 00:22:15;;;;;;;;;;;;;;;18.56;60.72;101915.98;2277414;78;50219;-76
2022/12/03 00:25:17;;;;;;;;;;;;;;;18.50;60.90;101912.92;2228898;78;50076;-77
2022/12/03 00:28:19;;;;;;;;;;;;;;;18.47;61.24;101911.02;2253473;78;51521;-77
2022/12/03 00:31:22;;;;;;;;;;;;;;;18.46;61.45;101908.84;2253396;78;50636;-77
2022/12/03 00:34:23;;;;;;;;;;;;;;;18.47;61.58;101912.36;2277897;78;51529;-75
2022/12/03 00:37:25;;;;;;;;;;;;;;;18.50;61.51;101915.60;2253250;78;51094;-75
2022/12/03 00:40:26;;;;;;;;;;;;;;;18.55;61.35;101911.60;2253096;78;51224;-75
2022/12/03 00:43:28;;;;;;;;;;;;;;;18.61;61.30;101914.53;2253178;78;50505;-76
2022/12/03 00:46:30;;;;;;;;;;;;;;;18.65;61.20;101912.38;2253356;77;51737;-77
2022/12/03 00:49:31;;;;;;;;;;;;;;;18.64;61.17;101904.00;2277304;78;50752;-77
2022/12/03 00:52:33;;;;;;;;;;;;;;;18.61;61.16;101902.97;2277304;78;51416;-77
2022/12/03 00:55:34;;;;;;;;;;;;;;;18.57;61.28;101893.53;2277211;77;50745;-77
2022/12/03 00:58:36;;;;;;;;;;;;;;;18.53;61.41;101899.72;2253484;78;51487;-77
2022/12/03 01:01:41;;;;;;;;;;;;;;;18.48;61.55;101902.00;2229161;78;52602;-76
2022/12/03 01:04:43;;;;;;;;;;;;;;;18.43;61.73;101905.64;2275247;77;50743;-75
2022/12/03 01:07:44;;;;;;;;;;;;;;;18.40;61.99;101904.09;2275109;78;51500;-76
2022/12/03 01:10:46;;;;;;;;;;;;;;;18.42;62.03;101916.86;2251471;78;51694;-77
2022/12/03 01:13:48;;;;;;;;;;;;;;;18.43;61.86;101903.80;2251248;78;50099;-78
2022/12/03 01:16:49;;;;;;;;;;;;;;;18.46;61.82;101908.84;2275116;78;51428;-78
2022/12/03 01:19:51;;;;;;;;;;;;;;;18.47;61.71;101905.19;2275101;78;51503;-76
2022/12/03 01:22:53;;;;;;;;;;;;;;;18.49;61.63;101913.89;2275743;78;50670;-76
2022/12/03 01:25:54;;;;;;;;;;;;;;;18.55;61.41;101913.81;2250532;78;51223;-77
2022/12/03 01:28:56;;;;;;;;;;;;;;;18.58;61.51;101914.00;2275758;78;50703;-78
2022/12/03 01:32:16;;;;;;;;;;;;;;;18.61;61.31;101913.70;2275112;78;51456;-77
2022/12/03 01:35:17;;;;;;;;;;;;;;;18.65;61.23;101910.56;2275071;78;50847;-76
2022/12/03 01:38:19;;;;;;;;;;;;;;;18.65;61.13;101908.35;2250714;78;50151;-79
2022/12/03 01:41:20;;;;;;;;;;;;;;;18.62;61.16;101903.30;2275942;78;50284;-77
2022/12/03 01:44:23;;;;;;;;;;;;;;;18.59;61.12;101910.31;2275173;78;50282;-76
2022/12/03 01:47:26;;;;;;;;;;;;;;;18.56;61.22;101905.27;2276075;78;51667;-77
2022/12/03 01:50:29;;;;;;;;;;;;;;;18.50;61.29;101900.86;2251398;78;52388;-76
2022/12/03 01:53:31;;;;;;;;;;;;;;;18.46;61.48;101908.84;2274613;78;51448;-77
2022/12/03 01:56:32;;;;;;;;;;;;;;;18.42;61.81;101902.13;2275316;78;50153;-77
2022/12/03 01:59:37;;;;;;;;;;;;;;;18.39;62.07;101906.41;2275163;78;50262;-77
2022/12/03 02:02:38;;;;;;;;;;;;;;;18.42;62.07;101895.89;2251105;78;51769;-78
2022/12/03 02:05:40;;;;;;;;;;;;;;;18.47;62.09;101896.28;2275263;78;50639;-77
2022/12/03 02:08:41;;;;;;;;;;;;;;;18.53;61.60;101889.49;2275378;78;51461;-77
2022/12/03 02:11:44;;;;;;;;;;;;;;;18.59;61.25;101891.05;2276105;78;51216;-78
2022/12/03 02:14:45;;;;;;;;;;;;;;;18.58;61.14;101898.76;2270531;77;52968;-80
2022/12/03 02:17:47;;;;;;;;;;;;;;;18.57;61.12;101896.22;2313816;77;51459;-79
2022/12/03 02:20:50;;;;;;;;;;;;;;;18.52;61.12;101891.81;2313785;77;51316;-79
2022/12/03 02:23:56;;;;;;;;;;;;;;;18.50;61.40;101892.81;2313467;76;51465;-78
2022/12/03 02:26:58;;;;;;;;;;;;;;;18.45;61.44;101900.98;2289106;77;51411;-79
2022/12/03 02:30:00;;;;;;;;;;;;;;;18.41;61.63;101899.08;2313420;76;50331;-77
2022/12/03 02:33:01;;;;;;;;;;;;;;;18.38;61.82;101900.72;2313399;77;50329;-77
2022/12/03 02:36:03;;;;;;;;;;;;;;;18.38;62.00;101900.72;2313554;76;50745;-77
2022/12/03 02:39:04;;;;;;;;;;;;;;;18.39;61.93;101894.36;2288290;76;49494;-78
2022/12/03 02:45:33;;;;;;;;;;;;;;;18.44;61.67;101898.77;2313709;77;22318;-77
2022/12/03 02:48:35;;;;;;;;;;;;;;;18.47;61.50;101898.96;2313456;77;50235;-77
2022/12/03 02:51:36;;;;;;;;;;;;;;;18.49;61.43;101899.16;2289428;77;51032;-76
2022/12/03 02:54:38;;;;;;;;;;;;;;;18.52;61.39;101897.17;2315359;76;51801;-77
2022/12/03 02:57:40;;;;;;;;;;;;;;;18.57;61.14;101893.53;2313833;77;51520;-77
2022/12/03 03:00:41;;;;;;;;;;;;;;;18.61;60.99;101897.61;2313324;76;50026;-76
2022/12/03 03:03:43;;;;;;;;;;;;;;;18.60;60.96;101906.62;2313067;77;51488;-77
2022/12/03 03:06:45;;;;;;;;;;;;;;;18.57;61.00;101890.86;2313240;77;51632;-77
2022/12/03 03:09:47;;;;;;;;;;;;;;;18.54;61.03;101897.36;2313350;77;50343;-76
2022/12/03 03:12:49;;;;;;;;;;;;;;;18.50;61.27;101894.16;2313319;77;50729;-76
2022/12/03 03:15:50;;;;;;;;;;;;;;;18.46;61.34;101896.78;2289181;77;51186;-76
2022/12/03 03:18:52;;;;;;;;;;;;;;;18.42;61.40;101894.08;2313369;77;51204;-76
2022/12/03 03:21:53;;;;;;;;;;;;;;;18.40;61.63;101886.69;2313322;76;50768;-76
2022/12/03 03:24:55;;;;;;;;;;;;;;;18.38;61.93;101885.98;2289323;77;52563;-77
2022/12/03 03:27:56;;;;;;;;;;;;;;;18.37;62.00;101889.67;2289092;77;52604;-77
2022/12/03 03:30:58;;;;;;;;;;;;;;;18.43;61.75;101881.52;2313414;77;51515;-78
2022/12/03 03:33:59;;;;;;;;;;;;;;;18.48;61.64;101877.37;2314053;77;50815;-78
2022/12/03 03:37:01;;;;;;;;;;;;;;;18.54;61.25;101878.60;2314141;77;50352;-77
2022/12/03 03:40:03;;;;;;;;;;;;;;;18.55;61.06;101874.08;2314216;76;50267;-77
2022/12/03 03:43:04;;;;;;;;;;;;;;;18.53;61.06;101872.08;2314377;77;50440;-78
2022/12/03 03:46:06;;;;;;;;;;;;;;;18.49;61.16;101879.05;2314124;77;50431;-76
2022/12/03 03:49:08;;;;;;;;;;;;;;;18.45;61.38;101869.65;2314032;77;50273;-78
2022/12/03 03:52:10;;;;;;;;;;;;;;;18.42;61.47;101858.38;2314437;77;50120;-78
2022/12/03 03:55:12;;;;;;;;;;;;;;;18.38;61.77;101867.23;2314235;77;51533;-79
2022/12/03 03:58:13;;;;;;;;;;;;;;;18.35;61.73;101857.32;2314438;77;51472;-79
2022/12/03 04:01:15;;;;;;;;;;;;;;;18.33;62.02;101856.13;2314400;76;51577;-79
2022/12/03 04:04:18;;;;;;;;;;;;;;;18.34;61.97;101859.64;2314993;76;50630;-78
2022/12/03 04:07:20;;;;;;;;;;;;;;;18.36;61.89;101863.84;2313626;77;50810;-77
2022/12/03 04:13:41;;;;;;;;;;;;;;;18.40;61.71;101843.80;2314274;77;22110;-78
2022/12/03 04:16:43;;;;;;;;;;;;;;;18.42;61.72;101851.20;2290003;77;50989;-78
2022/12/03 04:19:44;;;;;;;;;;;;;;;18.45;61.58;101844.70;2314881;77;51407;-79
2022/12/03 04:22:46;;;;;;;;;;;;;;;18.48;61.43;101846.56;2315162;76;51569;-76
2022/12/03 04:29:07;;;;;;;;;;;;;;;18.56;61.10;101839.59;2315311;77;22244;-78
2022/12/03 04:35:43;;;;;;;;;;;;;;;18.52;61.04;101835.02;2314360;77;23410;-78
2022/12/03 04:38:44;;;;;;;;;;;;;;;18.48;61.03;101837.68;2314889;77;50772;-78
2022/12/03 04:41:46;;;;;;;;;;;;;;;18.45;61.19;101839.33;2285902;77;51590;-77
2022/12/03 04:44:47;;;;;;;;;;;;;;;18.41;61.43;101839.28;2305174;77;50638;-78
2022/12/03 04:47:49;;;;;;;;;;;;;;;18.37;61.56;101838.76;2314193;77;50733;-78
2022/12/03 04:50:51;;;;;;;;;;;;;;;18.35;61.73;101843.92;2313904;76;50343;-78
2022/12/03 04:53:52;;;;;;;;;;;;;;;18.33;62.11;101837.36;2285145;77;50193;-78
2022/12/03 04:56:54;;;;;;;;;;;;;;;18.35;61.91;101842.08;2311554;77;50740;-77
2022/12/03 04:59:55;;;;;;;;;;;;;;;18.39;61.77;101843.44;2314179;76;51550;-77
2022/12/03 05:02:57;;;;;;;;;;;;;;;18.45;61.49;101837.49;2314234;76;50678;-74
2022/12/03 05:05:58;;;;;;;;;;;;;;;18.50;61.30;101831.17;2288491;77;50045;-75
2022/12/03 05:09:00;;;;;;;;;;;;;;;18.50;61.10;101833.02;2297661;77;50380;-76
2022/12/03 05:12:02;;;;;;;;;;;;;;;18.48;60.99;101829.14;2308227;76;50592;-74
2022/12/03 05:15:04;;;;;;;;;;;;;;;18.45;60.87;101832.63;2314185;76;51552;-74
2022/12/03 05:18:06;;;;;;;;;;;;;;;18.41;60.95;101833.42;2314820;77;51553;-75
2022/12/03 05:21:07;;;;;;;;;;;;;;;18.36;60.92;101818.80;2289844;77;52540;-73
2022/12/03 05:24:09;;;;;;;;;;;;;;;18.32;61.26;101822.80;2314639;76;51451;-73
2022/12/03 05:27:10;;;;;;;;;;;;;;;18.29;61.24;101821.27;2313829;77;50750;-73
2022/12/03 05:30:12;;;;;;;;;;;;;;;18.31;61.16;101819.25;2313833;77;50431;-73
2022/12/03 05:33:14;;;;;;;;;;;;;;;18.34;61.14;101816.77;2288427;77;52471;-77
2022/12/03 05:36:16;;;;;;;;;;;;;;;18.33;61.00;101818.61;2313823;77;51552;-74
2022/12/03 05:39:17;;;;;;;;;;;;;;;18.35;60.83;101823.83;2313750;77;51653;-73
2022/12/03 05:45:39;;;;;;;;;;;;;;;18.40;60.46;101816.17;2314253;77;22267;-75
2022/12/03 05:48:41;;;;;;;;;;;;;;;18.43;60.22;101820.72;2313470;77;51645;-76
2022/12/03 05:51:42;;;;;;;;;;;;;;;18.46;60.07;101807.00;2313062;77;51542;-74
2022/12/03 05:54:44;;;;;;;;;;;;;;;18.49;59.79;101816.06;2313035;77;51436;-75
2022/12/03 05:57:45;;;;;;;;;;;;;;;18.47;59.64;101815.41;2288142;77;50077;-75
2022/12/03 06:00:47;;;;;;;;;;;;;;;18.45;59.40;101808.01;2289164;77;52435;-75
2022/12/03 06:03:48;;;;;;;;;;;;;;;18.42;59.48;101808.80;2313025;76;50426;-75
2022/12/03 06:06:50;;;;;;;;;;;;;;;18.38;59.33;101810.12;2314219;76;49950;-75
2022/12/03 06:09:52;;;;;;;;;;;;;;;18.34;59.28;101806.91;2288036;77;51171;-75
2022/12/03 06:12:53;;;;;;;;;;;;;;;18.30;59.73;101817.58;2313965;76;50744;-74
2022/12/03 06:15:55;;;;;;;;;;;;;;;18.26;59.95;101810.83;2312980;77;50411;-75
2022/12/03 06:18:56;;;;;;;;;;;;;;;18.27;59.57;101809.86;2313093;77;50745;-75
2022/12/03 06:21:58;;;;;;;;;;;;;;;18.30;59.42;101814.90;2288661;77;50101;-76
2022/12/03 06:24:59;;;;;;;;;;;;;;;18.33;59.42;101814.59;2312503;77;51565;-76
2022/12/03 06:28:01;;;;;;;;;;;;;;;18.36;59.05;101816.95;2312981;77;51606;-75
2022/12/03 06:31:03;;;;;;;;;;;;;;;18.41;58.84;101818.68;2312917;77;51315;-75
2022/12/03 06:34:04;;;;;;;;;;;;;;;18.38;58.79;101812.30;2287212;77;50193;-74
2022/12/03 06:37:06;;;;;;;;;;;;;;;18.37;58.87;101813.77;2313609;77;50248;-75
2022/12/03 06:40:08;;;;;;;;;;;;;;;18.33;58.95;101817.27;2312792;77;50256;-72
2022/12/03 06:43:09;;;;;;;;;;;;;;;18.30;59.15;101814.06;2312651;77;51607;-73
2022/12/03 06:46:11;;;;;;;;;;;;;;;18.25;59.38;101819.87;2288525;77;51018;-74
2022/12/03 06:49:12;;;;;;;;;;;;;;;18.19;59.57;101805.76;2313542;77;50468;-76
2022/12/03 06:52:14;;;;;;;;;;;;;;;18.18;59.74;101805.39;2312687;76;51338;-73
2022/12/03 06:55:16;;;;;;;;;;;;;;;18.18;59.60;101808.08;2312544;77;50606;-73
2022/12/03 06:58:17;;;;;;;;;;;;;;;18.23;59.27;101813.81;2287573;77;52505;-75
2022/12/03 07:01:19;;;;;;;;;;;;;;;18.22;59.38;101810.80;2312779;77;51524;-74
2022/12/03 07:04:20;;;;;;;;;;;;;;;18.26;59.07;101813.51;2313419;76;50254;-74
2022/12/03 07:07:22;;;;;;;;;;;;;;;18.30;58.94;101806.02;2313532;77;51551;-75
2022/12/03 07:10:24;;;;;;;;;;;;;;;18.34;58.80;101809.59;2287418;77;49608;-74
2022/12/03 07:13:25;;;;;;;;;;;;;;;18.38;58.56;101809.61;2287343;77;51209;-74
2022/12/03 07:16:27;;;;;;;;;;;;;;;18.41;58.38;101809.30;2312849;77;50418;-74
2022/12/03 07:19:28;;;;;;;;;;;;;;;18.44;58.25;101813.01;2312840;77;50421;-74
2022/12/03 07:22:30;;;;;;;;;;;;;;;18.43;58.14;101810.50;2287596;77;51413;-73
2022/12/03 07:25:32;;;;;;;;;;;;;;;18.37;58.17;101811.96;2312628;77;50260;-75
2022/12/03 07:28:33;;;;;;;;;;;;;;;18.36;58.29;101815.62;2312895;77;50634;-77
2022/12/03 07:31:35;;;;;;;;;;;;;;;18.34;58.63;101806.05;2319181;75;50325;-74
2022/12/03 07:34:36;;;;;;;;;;;;;;;18.29;58.54;101807.88;2325733;75;51869;-75
2022/12/03 07:37:38;;;;;;;;;;;;;;;18.23;58.85;101817.33;2349625;75;51532;-75
2022/12/03 07:40:40;;;;;;;;;;;;;;;18.20;59.05;101808.77;2349894;75;51409;-75
2022/12/03 07:43:41;;;;;;;;;;;;;;;18.18;59.43;101809.41;2349511;75;51316;-74
2022/12/03 07:46:43;;;;;;;;;;;;;;;18.19;59.55;101805.25;2326956;75;52521;-73
2022/12/03 07:49:44;;;;;;;;;;;;;;;18.27;59.63;101812.53;2349353;75;51488;-75
2022/12/03 07:52:46;;;;;;;;;;;;;;;18.36;59.47;101804.89;2295297;76;51598;-75
2022/12/03 07:55:47;;;;;;;;;;;;;;;18.46;59.16;101808.34;2312607;77;51491;-75
2022/12/03 07:58:49;;;;;;;;;;;;;;;18.46;58.94;101802.98;2288410;77;49536;-75
2022/12/03 08:01:51;;;;;;;;;;;;;;;18.44;58.89;101798.27;2313720;77;50199;-75
2022/12/03 08:04:52;;;;;;;;;;;;;;;18.40;58.91;101802.77;2312683;77;50686;-73
2022/12/03 08:07:54;;;;;;;;;;;;;;;18.36;58.90;101806.23;2312836;77;50757;-74
2022/12/03 08:10:55;;;;;;;;;;;;;;;18.32;58.94;101800.86;2275812;77;51211;-75
2022/12/03 08:13:57;;;;;;;;;;;;;;;18.29;58.97;101799.83;2252425;78;50635;-75
2022/12/03 08:16:59;;;;;;;;;;;;;;;18.27;59.09;101795.95;2276636;78;51597;-75
2022/12/03 08:20:00;;;;;;;;;;;;;;;18.25;59.30;101793.92;2252565;78;51412;-73
2022/12/03 08:23:03;;;;;;;;;;;;;;;18.26;59.32;101780.89;2276595;78;50264;-74
2022/12/03 08:26:06;;;;;;;;;;;;;;;18.29;59.13;101793.13;2276430;77;51462;-73
2022/12/03 08:29:09;;;;;;;;;;;;;;;18.35;58.98;101784.47;2269031;78;51574;-74
2022/12/03 08:32:11;;;;;;;;;;;;;;;18.39;58.81;101791.69;2276647;77;50447;-74
2022/12/03 08:35:13;;;;;;;;;;;;;;;18.40;58.87;101786.19;2228209;78;52663;-74
2022/12/03 08:38:14;;;;;;;;;;;;;;;18.47;58.87;101787.27;2283801;77;50359;-75
2022/12/03 08:42:40;;;;;;;;;;;;;;;18.50;58.52;101786.95;2312721;77;50361;-75
2022/12/03 08:44:31;;;;;;;;;;;;;;;18.41;57.28;101789.20;2309102;77;22357;-72
2022/12/03 08:47:32;;;;;;;;;;;;;;;18.43;56.80;101793.91;2288048;77;51738;-74
2022/12/03 08:50:40;;;;;;;;;;;;;;;18.17;52.65;101785.81;2312596;77;50635;-75
2022/12/03 08:53:49;;;;;;;;;;;;;;;18.13;53.74;101794.30;2312519;77;50270;-76
2022/12/03 08:56:50;;;;;;;;;;;;;;;18.15;53.63;101786.45;2312026;76;50701;-73
2022/12/03 08:59:53;;;;;;;;;;;;;;;18.12;54.12;101783.25;2288535;77;52655;-74
2022/12/03 09:02:55;;;;;;;;;;;;;;;18.19;54.53;101788.34;2288625;77;51188;-72
2022/12/03 09:05:57;;;;;;;;;;;;;;;18.14;54.88;101782.10;2313264;77;51488;-72
2022/12/03 09:08:58;;;;;;;;;;;;;;;18.15;55.30;101780.26;2312799;77;51494;-73
2022/12/03 09:12:01;;;;;;;;;;;;;;;18.18;55.43;101786.64;2261066;78;52402;-72
2022/12/03 09:15:02;;;;;;;;;;;;;;;18.25;55.46;101784.55;2241675;79;50653;-74
2022/12/03 09:18:04;;;;;;;;;;;;;;;18.28;55.46;101784.73;2241826;79;51559;-76
2022/12/03 09:21:05;;;;;;;;;;;;;;;18.35;55.44;101784.97;2242006;79;50720;-74
2022/12/03 09:24:07;;;;;;;;;;;;;;;18.42;55.41;101781.53;2217248;79;51789;-74
2022/12/03 09:27:09;;;;;;;;;;;;;;;18.45;55.54;101781.21;2241813;79;50361;-75
2022/12/03 09:30:10;;;;;;;;;;;;;;;18.56;55.46;101781.97;2241699;79;50710;-75
2022/12/03 09:33:12;;;;;;;;;;;;;;;18.56;55.59;101773.92;2241914;79;49930;-76
2022/12/03 09:36:14;;;;;;;;;;;;;;;18.57;55.75;101773.75;2217260;79;52963;-74
2022/12/03 09:39:16;;;;;;;;;;;;;;;18.47;56.58;101765.83;2241844;79;50639;-75
2022/12/03 09:42:17;;;;;;;;;;;;;;;18.48;56.61;101768.00;2242447;77;50612;-75
2022/12/03 09:45:19;;;;;;;;;;;;;;;18.43;56.65;101761.75;2277369;78;50353;-74
2022/12/03 09:48:20;;;;;;;;;;;;;;;18.39;56.64;101764.39;2275564;77;51175;-75
2022/12/03 09:51:23;;;;;;;;;;;;;;;18.37;56.74;101761.05;2312619;77;50414;-74
2022/12/03 09:54:26;;;;;;;;;;;;;;;18.35;57.04;101764.88;2312399;77;51495;-75
2022/12/03 09:57:27;;;;;;;;;;;;;;;18.37;57.25;101754.34;2312632;77;50799;-75
2022/12/03 10:00:29;;;;;;;;;;;;;;;18.44;57.07;101754.05;2288710;77;52566;-73
2022/12/03 10:03:30;;;;;;;;;;;;;;;18.49;56.91;101751.75;2312480;76;50674;-74
2022/12/03 10:06:32;;;;;;;;;;;;;;;18.52;56.84;101752.44;2313505;77;50717;-74
2022/12/03 10:09:34;;;;;;;;;;;;;;;18.49;56.97;101744.21;2312710;77;51570;-74
2022/12/03 10:12:35;;;;;;;;;;;;;;;18.47;57.05;101739.50;2287464;77;52753;-72
2022/12/03 10:15:37;;;;;;;;;;;;;;;18.43;57.13;101737.64;2312465;76;51420;-73
2022/12/03 10:18:39;;;;;;;;;;;;;;;18.37;57.38;101740.95;2312742;77;50306;-74
2022/12/03 10:21:41;;;;;;;;;;;;;;;18.34;57.56;101742.61;2312668;77;51614;-72
2022/12/03 10:24:43;;;;;;;;;;;;;;;18.28;57.68;101734.66;2288386;77;54124;-72
2022/12/03 10:27:55;;;;;;;;;;;;;;;18.27;57.81;101732.16;2312699;77;50703;-72
2022/12/03 10:30:57;;;;;;;;;;;;;;;18.33;57.83;101727.51;2312589;77;50664;-73
2022/12/03 10:33:58;;;;;;;;;;;;;;;18.33;57.93;101730.19;2312495;77;50919;-74
2022/12/03 10:37:13;;;;;;;;;;;;;;;18.43;57.81;101730.94;2313546;77;51922;-75
2022/12/03 10:40:15;;;;;;;;;;;;;;;18.48;57.85;101732.66;2312739;77;50697;-76
2022/12/03 10:43:21;;;;;;;;;;;;;;;18.44;57.96;101724.57;2313561;77;51495;-73
2022/12/03 10:46:22;;;;;;;;;;;;;;;18.44;58.00;101723.23;2313105;77;50291;-74
2022/12/03 10:49:24;;;;;;;;;;;;;;;18.43;58.04;101719.38;2267400;78;52149;-75
2022/12/03 10:52:26;;;;;;;;;;;;;;;18.36;58.27;101717.81;2253931;79;50364;-76
2022/12/03 10:55:29;;;;;;;;;;;;;;;18.33;58.42;101716.79;2250140;78;50640;-75
2022/12/03 10:58:34;;;;;;;;;;;;;;;18.29;58.52;101728.83;2235538;79;50711;-75
2022/12/03 11:01:35;;;;;;;;;;;;;;;18.30;58.53;101722.47;2213587;79;52395;-74
2022/12/03 11:04:37;;;;;;;;;;;;;;;18.21;58.71;101713.53;2236458;79;49930;-76
2022/12/03 11:07:38;;;;;;;;;;;;;;;18.27;58.54;101722.27;2237128;79;50020;-75
2022/12/03 11:10:40;;;;;;;;;;;;;;;18.34;58.43;101715.81;2236999;79;50413;-76
2022/12/03 11:13:43;;;;;;;;;;;;;;;18.43;58.26;101716.20;2214274;79;51751;-75
2022/12/03 11:16:46;;;;;;;;;;;;;;;18.50;58.05;101705.71;2222697;78;52400;-76
2022/12/03 11:19:48;;;;;;;;;;;;;;;18.53;57.91;101708.58;2293460;77;50306;-74
2022/12/03 11:22:53;;;;;;;;;;;;;;;18.45;58.02;101699.47;2292863;77;51546;-74
2022/12/03 11:25:55;;;;;;;;;;;;;;;18.40;58.04;101696.42;2259496;77;52423;-75
2022/12/03 11:28:58;;;;;;;;;;;;;;;18.38;57.90;101696.23;2292937;76;51437;-74
2022/12/03 11:32:00;;;;;;;;;;;;;;;18.32;57.74;101697.70;2292701;77;51471;-74
2022/12/03 11:35:01;;;;;;;;;;;;;;;18.31;57.65;101690.64;2293393;77;50283;-74
2022/12/03 11:38:21;;;;;;;;;;;;;;;18.24;57.81;101686.42;2236183;77;49357;-76
2022/12/03 11:41:22;;;;;;;;;;;;;;;;;;2293356;76;51610;-76
2022/12/03 11:44:28;;;;;;;;;;;;;;;18.23;57.75;101677.19;2293365;77;51554;-75
2022/12/03 11:47:30;;;;;;;;;;;;;;;18.21;57.77;101673.82;2293408;77;51506;-75
2022/12/03 11:50:39;;;;;;;;;;;;;;;18.29;57.55;101676.59;2260248;77;52652;-74
2022/12/03 11:53:41;;;;;;;;;;;;;;;18.29;57.49;101665.88;2284782;77;51463;-75
2022/12/03 11:56:47;;;;;;;;;;;;;;;18.33;57.35;101680.62;2293226;77;51441;-75
2022/12/03 12:00:00;;;;;;;;;;;;;;;18.39;57.30;101671.11;2293205;77;51615;-75
2022/12/03 12:03:01;;;;;;;;;;;;;;;18.36;57.23;101670.92;2259259;77;49679;-75
2022/12/03 12:06:04;;;;;;;;;;;;;;;18.41;57.14;101675.31;2293165;77;50698;-75
2022/12/03 12:09:06;;;;;;;;;;;;;;;18.49;56.95;101677.20;2293310;77;50702;-76
2022/12/03 12:12:27;;;;;;;;;;;;;;;18.51;56.89;101669.86;2293243;77;51513;-75
2022/12/03 12:15:34;;;;;;;;;;;;;;;18.52;56.84;101670.69;2260121;77;51793;-75
2022/12/03 12:18:37;;;;;;;;;;;;;;;18.52;56.88;101672.86;2291846;77;50345;-74
2022/12/03 12:21:40;;;;;;;;;;;;;;;18.48;56.91;101673.69;2294094;77;51551;-75
2022/12/03 12:24:46;;;;;;;;;;;;;;;18.40;57.11;101668.28;2293746;77;51569;-75
2022/12/03 12:27:49;;;;;;;;;;;;;;;18.37;57.17;101667.73;2260167;77;52371;-75
2022/12/03 12:30:51;;;;;;;;;;;;;;;18.32;57.26;101663.38;2260676;77;50696;-75
2022/12/03 12:33:53;;;;;;;;;;;;;;;18.28;57.36;101670.36;2293149;76;51433;-74
2022/12/03 12:36:56;;;;;;;;;;;;;;;18.29;57.34;101664.53;2293259;77;51262;-74
2022/12/03 12:39:57;;;;;;;;;;;;;;;18.33;57.20;101660.52;2260283;77;51146;-74
2022/12/03 12:43:00;;;;;;;;;;;;;;;18.38;57.05;101658.22;2293110;76;50749;-74
2022/12/03 12:46:03;;;;;;;;;;;;;;;18.46;56.90;101656.92;2293112;76;50414;-75
2022/12/03 12:49:11;;;;;;;;;;;;;;;18.58;56.62;101655.34;2292511;77;50713;-75
2022/12/03 12:52:13;;;;;;;;;;;;;;;18.56;56.54;101645.27;2260124;77;51247;-74
2022/12/03 12:55:16;;;;;;;;;;;;;;;18.57;56.57;101648.28;2293151;77;51578;-74
2022/12/03 12:58:18;;;;;;;;;;;;;;;18.54;56.60;101648.59;2260580;77;51525;-74
2022/12/03 13:01:20;;;;;;;;;;;;;;;18.44;56.74;101638.81;2293227;77;51369;-75
2022/12/03 13:04:22;;;;;;;;;;;;;;;18.40;56.92;101637.47;2259819;77;50935;-75
2022/12/03 13:07:25;;;;;;;;;;;;;;;18.31;57.08;101634.88;2260090;77;51464;-74
2022/12/03 13:10:34;;;;;;;;;;;;;;;18.28;57.19;101628.00;2293225;77;50485;-75
2022/12/03 13:13:37;;;;;;;;;;;;;;;18.23;57.25;101625.78;2293086;77;50505;-74
2022/12/03 13:16:39;;;;;;;;;;;;;;;18.25;57.21;101621.62;2260042;77;52687;-75
2022/12/03 13:19:41;;;;;;;;;;;;;;;18.29;57.08;101618.98;2260211;77;51609;-75
2022/12/03 13:22:42;;;;;;;;;;;;;;;18.32;57.00;101622.69;2293201;77;51398;-75
2022/12/03 13:25:44;;;;;;;;;;;;;;;18.34;56.87;101620.69;2245790;78;51427;-75
2022/12/03 13:28:45;;;;;;;;;;;;;;;18.38;56.76;101622.04;2278429;77;51278;-75
2022/12/03 13:31:52;;;;;;;;;;;;;;;18.41;56.66;101623.05;2286145;77;50313;-75
2022/12/03 13:34:54;;;;;;;;;;;;;;;18.43;56.55;101621.06;2286240;77;50330;-75
2022/12/03 13:37:57;;;;;;;;;;;;;;;18.47;56.49;101620.23;2284811;77;50863;-74
2022/12/03 13:40:59;;;;;;;;;;;;;;;18.56;56.19;101613.94;2248207;78;51495;-75
2022/12/03 13:44:01;;;;;;;;;;;;;;;18.58;56.10;101618.64;2286042;77;51633;-75
2022/12/03 13:47:04;;;;;;;;;;;;;;;18.52;56.28;101614.41;2286243;78;50680;-75
2022/12/03 13:50:07;;;;;;;;;;;;;;;18.43;56.44;101614.37;2286034;77;50268;-75
2022/12/03 13:53:11;;;;;;;;;;;;;;;18.43;56.48;101605.50;2278413;77;51389;-75
2022/12/03 13:56:23;;;;;;;;;;;;;;;18.38;56.59;101605.12;2286122;78;51523;-75
2022/12/03 13:59:24;;;;;;;;;;;;;;;18.33;56.67;101599.41;2286186;77;51475;-75
2022/12/03 14:02:26;;;;;;;;;;;;;;;18.26;56.78;101599.18;2286246;77;51531;-75
2022/12/03 14:05:28;;;;;;;;;;;;;;;18.23;56.82;101608.88;2284427;77;51203;-75
2022/12/03 14:08:29;;;;;;;;;;;;;;;18.27;56.71;101604.90;2284578;77;53720;-75
2022/12/03 14:14:50;;;;;;;;;;;;;;;18.37;56.49;101610.99;2286491;78;22286;-75
2022/12/03 14:17:52;;;;;;;;;;;;;;;18.43;56.29;101606.33;2248303;78;49658;-74
2022/12/03 14:20:54;;;;;;;;;;;;;;;18.52;56.11;101606.37;2286253;77;51468;-75
2022/12/03 14:23:55;;;;;;;;;;;;;;;18.56;56.03;101609.92;2286023;77;51412;-74
2022/12/03 14:26:57;;;;;;;;;;;;;;;18.55;55.96;101606.05;2286247;78;50283;-75
2022/12/03 14:29:58;;;;;;;;;;;;;;;18.48;56.07;101599.99;2284547;77;50170;-74
2022/12/03 14:33:00;;;;;;;;;;;;;;;18.44;56.19;101610.67;2284720;77;50423;-75
2022/12/03 14:36:02;;;;;;;;;;;;;;;18.34;56.45;101609.11;2284463;77;49908;-74
2022/12/03 14:39:03;;;;;;;;;;;;;;;18.29;56.52;101610.95;2286255;78;50063;-74
2022/12/03 14:42:14;;;;;;;;;;;;;;;18.24;56.66;101610.08;2248267;77;49533;-74
2022/12/03 14:45:15;;;;;;;;;;;;;;;18.22;56.67;101599.17;2286110;76;50785;-74
2022/12/03 14:48:17;;;;;;;;;;;;;;;18.20;56.71;101598.48;2284534;77;50397;-74
2022/12/03 14:51:20;;;;;;;;;;;;;;;18.23;56.62;101603.52;2284418;77;50711;-75
2022/12/03 14:54:21;;;;;;;;;;;;;;;18.28;56.44;101610.59;2259235;78;51230;-74
2022/12/03 14:57:23;;;;;;;;;;;;;;;18.35;56.25;101602.27;2286198;77;50263;-75
2022/12/03 15:00:25;;;;;;;;;;;;;;;18.33;56.28;101604.26;2284511;77;50048;-75
2022/12/03 15:03:26;;;;;;;;;;;;;;;18.39;56.16;101604.12;2284354;77;51519;-74
2022/12/03 15:06:28;;;;;;;;;;;;;;;18.45;56.01;101611.55;2248237;78;51050;-74
2022/12/03 15:09:30;;;;;;;;;;;;;;;18.46;55.96;101615.89;2284574;77;51482;-75
2022/12/03 15:12:31;;;;;;;;;;;;;;;18.49;55.88;101609.70;2286151;77;51501;-74
2022/12/03 15:15:33;;;;;;;;;;;;;;;18.44;55.96;101612.02;2286067;78;51633;-73
2022/12/03 15:18:34;;;;;;;;;;;;;;;18.40;56.01;101609.33;2259401;78;53260;-74
2022/12/03 15:21:36;;;;;;;;;;;;;;;18.35;56.13;101612.98;2286189;78;51489;-75
2022/12/03 15:24:38;;;;;;;;;;;;;;;18.30;56.22;101610.44;2284325;77;51538;-74
2022/12/03 15:27:40;;;;;;;;;;;;;;;18.27;56.26;101611.09;2284465;77;51413;-75
2022/12/03 15:30:42;;;;;;;;;;;;;;;18.21;56.33;101612.20;2259269;78;52757;-75
2022/12/03 15:33:43;;;;;;;;;;;;;;;18.23;56.33;101617.75;2284407;77;51521;-74
2022/12/03 15:36:45;;;;;;;;;;;;;;;18.20;56.47;101614.56;2284597;77;51422;-74
2022/12/03 15:39:46;;;;;;;;;;;;;;;18.29;56.20;101614.97;2284640;77;50272;-74
2022/12/03 15:42:48;;;;;;;;;;;;;;;18.32;56.18;101609.80;2259280;78;51036;-74
2022/12/03 15:45:49;;;;;;;;;;;;;;;18.36;56.07;101609.30;2284429;77;50421;-75
2022/12/03 15:48:51;;;;;;;;;;;;;;;18.42;55.90;101606.00;2284493;77;53257;-77
2022/12/03 15:51:53;;;;;;;;;;;;;;;18.45;55.85;101601.66;2286211;77;50419;-75
2022/12/03 15:54:54;;;;;;;;;;;;;;;18.48;55.74;101605.35;2278250;77;51945;-74
2022/12/03 15:57:56;;;;;;;;;;;;;;;18.43;55.83;101609.01;2286338;77;50706;-75